sensor_id;sensor_type;location;lat;lon;timestamp;P1;durP1;ratioP1;P2;durP2;ratioP2
8596;SDS011;4336;49.310;8.646;2024-03-25T00:01:23;10.37;;;6.93;;
8596;SDS011;4336;49.310;8.646;2024-03-25T00:03:49;8.60;;;7.30;;
8596;SDS011;4336;49.310;8.646;2024-03-25T00:06:16;9.40;;;8.00;;
8596;SDS011;4336;49.310;8.646;2024-03-25T00:08:42;8.43;;;7.33;;
8596;SDS011;4336;49.310;8.646;2024-03-25T00:11:08;8.77;;;7.70;;
8596;SDS011;4336;49.310;8.646;2024-03-25T00:13:34;9.13;;;7.77;;
8596;SDS011;4336;49.310;8.646;2024-03-25T00:16:00;8.87;;;6.90;;
8596;SDS011;4336;49.310;8.646;2024-03-25T00:18:26;11.23;;;7.43;;
8596;SDS011;4336;49.310;8.646;2024-03-25T00:20:52;8.60;;;7.60;;
8596;SDS011;4336;49.310;8.646;2024-03-25T00:23:19;8.20;;;7.37;;
8596;SDS011;4336;49.310;8.646;2024-03-25T00:25:45;8.47;;;6.17;;
8596;SDS011;4336;49.310;8.646;2024-03-25T00:28:12;10.80;;;8.53;;
8596;SDS011;4336;49.310;8.646;2024-03-25T00:30:38;11.93;;;8.50;;
8596;SDS011;4336;49.310;8.646;2024-03-25T00:33:04;9.47;;;7.73;;
8596;SDS011;4336;49.310;8.646;2024-03-25T00:35:32;8.30;;;7.27;;
8596;SDS011;4336;49.310;8.646;2024-03-25T00:37:58;10.57;;;8.57;;
8596;SDS011;4336;49.310;8.646;2024-03-25T00:40:24;9.47;;;8.47;;
8596;SDS011;4336;49.310;8.646;2024-03-25T00:42:50;8.17;;;7.37;;
8596;SDS011;4336;49.310;8.646;2024-03-25T00:45:17;12.53;;;8.57;;
8596;SDS011;4336;49.310;8.646;2024-03-25T00:47:43;11.53;;;8.23;;
8596;SDS011;4336;49.310;8.646;2024-03-25T00:50:09;9.93;;;8.53;;
8596;SDS011;4336;49.310;8.646;2024-03-25T00:52:35;9.50;;;7.70;;
8596;SDS011;4336;49.310;8.646;2024-03-25T00:55:01;12.03;;;7.53;;
8596;SDS011;4336;49.310;8.646;2024-03-25T00:57:28;9.03;;;7.63;;
8596;SDS011;4336;49.310;8.646;2024-03-25T00:59:55;11.20;;;9.63;;
8596;SDS011;4336;49.310;8.646;2024-03-25T01:02:21;8.97;;;7.87;;
8596;SDS011;4336;49.310;8.646;2024-03-25T01:04:47;9.57;;;8.47;;
8596;SDS011;4336;49.310;8.646;2024-03-25T01:07:13;10.07;;;8.27;;
8596;SDS011;4336;49.310;8.646;2024-03-25T01:09:39;9.93;;;8.47;;
8596;SDS011;4336;49.310;8.646;2024-03-25T01:12:05;13.37;;;8.93;;
8596;SDS011;4336;49.310;8.646;2024-03-25T01:14:31;9.83;;;6.77;;
8596;SDS011;4336;49.310;8.646;2024-03-25T01:16:57;8.17;;;6.60;;
8596;SDS011;4336;49.310;8.646;2024-03-25T01:19:23;11.97;;;8.73;;
8596;SDS011;4336;49.310;8.646;2024-03-25T01:21:49;10.10;;;7.97;;
8596;SDS011;4336;49.310;8.646;2024-03-25T01:24:15;10.77;;;8.77;;
8596;SDS011;4336;49.310;8.646;2024-03-25T01:26:41;9.73;;;7.50;;
8596;SDS011;4336;49.310;8.646;2024-03-25T01:29:07;11.47;;;8.40;;
8596;SDS011;4336;49.310;8.646;2024-03-25T01:31:33;10.20;;;8.67;;
8596;SDS011;4336;49.310;8.646;2024-03-25T01:33:59;10.33;;;7.80;;
8596;SDS011;4336;49.310;8.646;2024-03-25T01:36:26;11.53;;;8.07;;
8596;SDS011;4336;49.310;8.646;2024-03-25T01:38:52;13.93;;;8.80;;
8596;SDS011;4336;49.310;8.646;2024-03-25T01:41:20;12.97;;;8.30;;
8596;SDS011;4336;49.310;8.646;2024-03-25T01:43:48;12.60;;;9.13;;
8596;SDS011;4336;49.310;8.646;2024-03-25T01:46:14;11.27;;;9.20;;
8596;SDS011;4336;49.310;8.646;2024-03-25T01:48:42;11.83;;;8.83;;
8596;SDS011;4336;49.310;8.646;2024-03-25T01:51:08;12.80;;;8.77;;
8596;SDS011;4336;49.310;8.646;2024-03-25T01:53:35;10.93;;;8.40;;
8596;SDS011;4336;49.310;8.646;2024-03-25T01:56:01;12.10;;;8.37;;
8596;SDS011;4336;49.310;8.646;2024-03-25T01:58:28;10.60;;;8.97;;
8596;SDS011;4336;49.310;8.646;2024-03-25T02:00:56;8.77;;;7.87;;
8596;SDS011;4336;49.310;8.646;2024-03-25T02:03:22;11.97;;;8.07;;
8596;SDS011;4336;49.310;8.646;2024-03-25T02:05:52;11.83;;;7.93;;
8596;SDS011;4336;49.310;8.646;2024-03-25T02:08:21;8.83;;;7.93;;
8596;SDS011;4336;49.310;8.646;2024-03-25T02:10:47;11.80;;;8.60;;
8596;SDS011;4336;49.310;8.646;2024-03-25T02:13:14;16.80;;;8.63;;
8596;SDS011;4336;49.310;8.646;2024-03-25T02:15:41;12.57;;;8.20;;
8596;SDS011;4336;49.310;8.646;2024-03-25T02:18:07;9.73;;;8.73;;
8596;SDS011;4336;49.310;8.646;2024-03-25T02:20:33;11.00;;;9.10;;
8596;SDS011;4336;49.310;8.646;2024-03-25T02:22:59;11.13;;;9.13;;
8596;SDS011;4336;49.310;8.646;2024-03-25T02:25:25;8.93;;;7.97;;
8596;SDS011;4336;49.310;8.646;2024-03-25T02:27:51;10.23;;;8.50;;
8596;SDS011;4336;49.310;8.646;2024-03-25T02:30:18;11.70;;;9.10;;
8596;SDS011;4336;49.310;8.646;2024-03-25T02:32:44;13.27;;;10.43;;
8596;SDS011;4336;49.310;8.646;2024-03-25T02:35:11;19.37;;;12.73;;
8596;SDS011;4336;49.310;8.646;2024-03-25T02:37:38;13.27;;;9.57;;
8596;SDS011;4336;49.310;8.646;2024-03-25T02:40:05;13.03;;;8.67;;
8596;SDS011;4336;49.310;8.646;2024-03-25T02:42:32;11.47;;;8.87;;
8596;SDS011;4336;49.310;8.646;2024-03-25T02:44:58;15.60;;;9.03;;
8596;SDS011;4336;49.310;8.646;2024-03-25T02:47:25;10.87;;;8.67;;
8596;SDS011;4336;49.310;8.646;2024-03-25T02:49:51;13.70;;;8.50;;
8596;SDS011;4336;49.310;8.646;2024-03-25T02:52:20;10.03;;;8.03;;
8596;SDS011;4336;49.310;8.646;2024-03-25T02:54:47;15.03;;;9.40;;
8596;SDS011;4336;49.310;8.646;2024-03-25T02:57:12;12.33;;;8.80;;
8596;SDS011;4336;49.310;8.646;2024-03-25T02:59:39;10.23;;;8.53;;
8596;SDS011;4336;49.310;8.646;2024-03-25T03:02:05;13.50;;;9.23;;
8596;SDS011;4336;49.310;8.646;2024-03-25T03:04:31;10.50;;;8.87;;
8596;SDS011;4336;49.310;8.646;2024-03-25T03:06:57;11.83;;;8.67;;
8596;SDS011;4336;49.310;8.646;2024-03-25T03:09:23;10.00;;;9.00;;
8596;SDS011;4336;49.310;8.646;2024-03-25T03:11:50;15.83;;;9.27;;
8596;SDS011;4336;49.310;8.646;2024-03-25T03:14:16;12.70;;;8.90;;
8596;SDS011;4336;49.310;8.646;2024-03-25T03:16:42;10.47;;;8.90;;
8596;SDS011;4336;49.310;8.646;2024-03-25T03:19:09;11.43;;;9.80;;
8596;SDS011;4336;49.310;8.646;2024-03-25T03:21:35;11.53;;;8.57;;
8596;SDS011;4336;49.310;8.646;2024-03-25T03:24:02;12.53;;;8.17;;
8596;SDS011;4336;49.310;8.646;2024-03-25T03:26:28;12.37;;;8.80;;
8596;SDS011;4336;49.310;8.646;2024-03-25T03:28:55;12.40;;;8.90;;
8596;SDS011;4336;49.310;8.646;2024-03-25T03:31:21;12.30;;;9.20;;
8596;SDS011;4336;49.310;8.646;2024-03-25T03:33:47;10.07;;;8.80;;
8596;SDS011;4336;49.310;8.646;2024-03-25T03:36:15;10.03;;;7.63;;
8596;SDS011;4336;49.310;8.646;2024-03-25T03:38:41;8.93;;;8.03;;
8596;SDS011;4336;49.310;8.646;2024-03-25T03:41:07;11.93;;;8.57;;
8596;SDS011;4336;49.310;8.646;2024-03-25T03:43:33;11.07;;;8.30;;
8596;SDS011;4336;49.310;8.646;2024-03-25T03:45:59;12.20;;;8.60;;
8596;SDS011;4336;49.310;8.646;2024-03-25T03:48:25;12.73;;;7.67;;
8596;SDS011;4336;49.310;8.646;2024-03-25T03:50:51;15.20;;;8.50;;
8596;SDS011;4336;49.310;8.646;2024-03-25T03:53:18;10.97;;;8.50;;
8596;SDS011;4336;49.310;8.646;2024-03-25T03:55:53;14.43;;;8.97;;
8596;SDS011;4336;49.310;8.646;2024-03-25T03:58:20;10.90;;;8.97;;
8596;SDS011;4336;49.310;8.646;2024-03-25T04:00:47;11.87;;;8.47;;
8596;SDS011;4336;49.310;8.646;2024-03-25T04:03:13;11.60;;;9.00;;
8596;SDS011;4336;49.310;8.646;2024-03-25T04:05:39;10.97;;;9.37;;
8596;SDS011;4336;49.310;8.646;2024-03-25T04:08:05;13.67;;;9.20;;
8596;SDS011;4336;49.310;8.646;2024-03-25T04:10:31;16.20;;;8.27;;
8596;SDS011;4336;49.310;8.646;2024-03-25T04:12:57;15.13;;;9.30;;
8596;SDS011;4336;49.310;8.646;2024-03-25T04:15:24;12.73;;;9.80;;
8596;SDS011;4336;49.310;8.646;2024-03-25T04:17:51;11.67;;;8.90;;
8596;SDS011;4336;49.310;8.646;2024-03-25T04:20:17;10.77;;;8.93;;
8596;SDS011;4336;49.310;8.646;2024-03-25T04:22:44;11.73;;;9.10;;
8596;SDS011;4336;49.310;8.646;2024-03-25T04:25:10;12.07;;;9.00;;
8596;SDS011;4336;49.310;8.646;2024-03-25T04:27:37;12.77;;;9.27;;
8596;SDS011;4336;49.310;8.646;2024-03-25T04:30:05;12.77;;;9.10;;
8596;SDS011;4336;49.310;8.646;2024-03-25T04:32:32;11.33;;;9.00;;
8596;SDS011;4336;49.310;8.646;2024-03-25T04:34:58;11.90;;;8.80;;
8596;SDS011;4336;49.310;8.646;2024-03-25T04:37:24;12.53;;;8.50;;
8596;SDS011;4336;49.310;8.646;2024-03-25T04:39:50;10.97;;;8.90;;
8596;SDS011;4336;49.310;8.646;2024-03-25T04:42:17;11.70;;;9.30;;
8596;SDS011;4336;49.310;8.646;2024-03-25T04:44:43;10.77;;;8.37;;
8596;SDS011;4336;49.310;8.646;2024-03-25T04:47:09;10.27;;;8.80;;
8596;SDS011;4336;49.310;8.646;2024-03-25T04:49:35;11.40;;;8.67;;
8596;SDS011;4336;49.310;8.646;2024-03-25T04:52:03;12.47;;;9.03;;
8596;SDS011;4336;49.310;8.646;2024-03-25T04:54:29;15.63;;;9.30;;
8596;SDS011;4336;49.310;8.646;2024-03-25T04:56:55;10.13;;;8.90;;
8596;SDS011;4336;49.310;8.646;2024-03-25T04:59:21;9.47;;;7.37;;
8596;SDS011;4336;49.310;8.646;2024-03-25T05:01:47;13.27;;;8.83;;
8596;SDS011;4336;49.310;8.646;2024-03-25T05:04:13;13.30;;;9.50;;
8596;SDS011;4336;49.310;8.646;2024-03-25T05:06:39;14.90;;;9.63;;
8596;SDS011;4336;49.310;8.646;2024-03-25T05:09:06;12.80;;;9.50;;
8596;SDS011;4336;49.310;8.646;2024-03-25T05:11:32;10.53;;;8.33;;
8596;SDS011;4336;49.310;8.646;2024-03-25T05:13:59;12.77;;;9.03;;
8596;SDS011;4336;49.310;8.646;2024-03-25T05:16:25;13.30;;;10.03;;
8596;SDS011;4336;49.310;8.646;2024-03-25T05:18:50;18.70;;;14.37;;
8596;SDS011;4336;49.310;8.646;2024-03-25T05:21:17;18.50;;;13.17;;
8596;SDS011;4336;49.310;8.646;2024-03-25T05:23:43;23.17;;;15.57;;
8596;SDS011;4336;49.310;8.646;2024-03-25T05:26:09;14.93;;;11.67;;
8596;SDS011;4336;49.310;8.646;2024-03-25T05:28:35;15.23;;;12.10;;
8596;SDS011;4336;49.310;8.646;2024-03-25T05:31:07;14.47;;;12.33;;
8596;SDS011;4336;49.310;8.646;2024-03-25T05:33:34;16.87;;;13.10;;
8596;SDS011;4336;49.310;8.646;2024-03-25T05:36:00;16.93;;;11.93;;
8596;SDS011;4336;49.310;8.646;2024-03-25T05:38:28;13.93;;;10.27;;
8596;SDS011;4336;49.310;8.646;2024-03-25T05:40:54;15.50;;;11.43;;
8596;SDS011;4336;49.310;8.646;2024-03-25T05:43:20;12.40;;;11.10;;
8596;SDS011;4336;49.310;8.646;2024-03-25T05:45:53;16.77;;;10.97;;
8596;SDS011;4336;49.310;8.646;2024-03-25T05:48:24;14.07;;;10.97;;
8596;SDS011;4336;49.310;8.646;2024-03-25T05:51:03;15.87;;;12.40;;
8596;SDS011;4336;49.310;8.646;2024-03-25T05:53:32;19.20;;;14.60;;
8596;SDS011;4336;49.310;8.646;2024-03-25T05:55:59;16.50;;;12.30;;
8596;SDS011;4336;49.310;8.646;2024-03-25T05:58:25;11.13;;;9.17;;
8596;SDS011;4336;49.310;8.646;2024-03-25T06:00:52;15.03;;;11.73;;
8596;SDS011;4336;49.310;8.646;2024-03-25T06:03:18;13.93;;;10.97;;
8596;SDS011;4336;49.310;8.646;2024-03-25T06:05:44;16.47;;;13.77;;
8596;SDS011;4336;49.310;8.646;2024-03-25T06:08:11;21.67;;;16.83;;
8596;SDS011;4336;49.310;8.646;2024-03-25T06:10:46;10.97;;;9.73;;
8596;SDS011;4336;49.310;8.646;2024-03-25T06:13:12;14.53;;;10.40;;
8596;SDS011;4336;49.310;8.646;2024-03-25T06:15:39;13.97;;;10.73;;
8596;SDS011;4336;49.310;8.646;2024-03-25T06:18:05;13.57;;;10.60;;
8596;SDS011;4336;49.310;8.646;2024-03-25T06:20:31;14.83;;;10.67;;
8596;SDS011;4336;49.310;8.646;2024-03-25T06:22:57;12.93;;;8.57;;
8596;SDS011;4336;49.310;8.646;2024-03-25T06:25:23;13.97;;;8.67;;
8596;SDS011;4336;49.310;8.646;2024-03-25T06:27:49;11.13;;;9.67;;
8596;SDS011;4336;49.310;8.646;2024-03-25T06:30:16;12.50;;;9.10;;
8596;SDS011;4336;49.310;8.646;2024-03-25T06:33:00;10.60;;;8.63;;
8596;SDS011;4336;49.310;8.646;2024-03-25T06:35:45;15.27;;;9.50;;
8596;SDS011;4336;49.310;8.646;2024-03-25T06:38:11;11.57;;;8.30;;
8596;SDS011;4336;49.310;8.646;2024-03-25T06:40:37;14.37;;;9.50;;
8596;SDS011;4336;49.310;8.646;2024-03-25T06:43:04;11.67;;;9.13;;
8596;SDS011;4336;49.310;8.646;2024-03-25T06:45:30;10.87;;;9.60;;
8596;SDS011;4336;49.310;8.646;2024-03-25T06:47:57;11.80;;;9.30;;
8596;SDS011;4336;49.310;8.646;2024-03-25T06:50:23;17.03;;;13.73;;
8596;SDS011;4336;49.310;8.646;2024-03-25T06:52:49;17.07;;;11.13;;
8596;SDS011;4336;49.310;8.646;2024-03-25T06:55:16;14.30;;;10.17;;
8596;SDS011;4336;49.310;8.646;2024-03-25T06:57:44;12.13;;;10.37;;
8596;SDS011;4336;49.310;8.646;2024-03-25T07:00:10;14.77;;;10.90;;
8596;SDS011;4336;49.310;8.646;2024-03-25T07:02:41;11.63;;;9.77;;
8596;SDS011;4336;49.310;8.646;2024-03-25T07:05:07;11.03;;;9.60;;
8596;SDS011;4336;49.310;8.646;2024-03-25T07:07:33;11.27;;;8.70;;
8596;SDS011;4336;49.310;8.646;2024-03-25T07:10:00;10.13;;;9.10;;
8596;SDS011;4336;49.310;8.646;2024-03-25T07:12:26;9.80;;;8.70;;
8596;SDS011;4336;49.310;8.646;2024-03-25T07:14:53;10.23;;;8.40;;
8596;SDS011;4336;49.310;8.646;2024-03-25T07:17:20;13.83;;;12.17;;
8596;SDS011;4336;49.310;8.646;2024-03-25T07:19:50;27.70;;;23.70;;
8596;SDS011;4336;49.310;8.646;2024-03-25T07:22:17;10.43;;;8.90;;
8596;SDS011;4336;49.310;8.646;2024-03-25T07:24:44;12.37;;;9.40;;
8596;SDS011;4336;49.310;8.646;2024-03-25T07:27:10;13.70;;;9.40;;
8596;SDS011;4336;49.310;8.646;2024-03-25T07:29:37;10.60;;;8.80;;
8596;SDS011;4336;49.310;8.646;2024-03-25T07:32:04;10.10;;;9.07;;
8596;SDS011;4336;49.310;8.646;2024-03-25T07:34:30;9.77;;;8.23;;
8596;SDS011;4336;49.310;8.646;2024-03-25T07:36:56;10.40;;;8.40;;
8596;SDS011;4336;49.310;8.646;2024-03-25T07:39:22;13.97;;;11.47;;
8596;SDS011;4336;49.310;8.646;2024-03-25T07:41:52;12.00;;;9.63;;
8596;SDS011;4336;49.310;8.646;2024-03-25T07:44:18;12.03;;;8.53;;
8596;SDS011;4336;49.310;8.646;2024-03-25T07:46:45;14.10;;;8.13;;
8596;SDS011;4336;49.310;8.646;2024-03-25T07:49:11;9.80;;;8.67;;
8596;SDS011;4336;49.310;8.646;2024-03-25T07:51:38;11.00;;;8.23;;
8596;SDS011;4336;49.310;8.646;2024-03-25T07:54:05;11.83;;;8.87;;
8596;SDS011;4336;49.310;8.646;2024-03-25T07:56:31;12.27;;;8.97;;
8596;SDS011;4336;49.310;8.646;2024-03-25T07:59:02;14.50;;;11.07;;
8596;SDS011;4336;49.310;8.646;2024-03-25T08:01:29;12.00;;;9.83;;
8596;SDS011;4336;49.310;8.646;2024-03-25T08:03:55;11.17;;;9.47;;
8596;SDS011;4336;49.310;8.646;2024-03-25T08:06:21;10.10;;;7.97;;
8596;SDS011;4336;49.310;8.646;2024-03-25T08:08:47;13.27;;;8.80;;
8596;SDS011;4336;49.310;8.646;2024-03-25T08:11:13;10.13;;;8.07;;
8596;SDS011;4336;49.310;8.646;2024-03-25T08:13:38;10.40;;;8.00;;
8596;SDS011;4336;49.310;8.646;2024-03-25T08:16:04;10.43;;;7.97;;
8596;SDS011;4336;49.310;8.646;2024-03-25T08:18:30;9.27;;;8.27;;
8596;SDS011;4336;49.310;8.646;2024-03-25T08:20:56;12.70;;;8.77;;
8596;SDS011;4336;49.310;8.646;2024-03-25T08:23:22;14.87;;;10.43;;
8596;SDS011;4336;49.310;8.646;2024-03-25T08:25:47;12.80;;;9.50;;
8596;SDS011;4336;49.310;8.646;2024-03-25T08:28:13;8.87;;;7.40;;
8596;SDS011;4336;49.310;8.646;2024-03-25T08:30:39;9.20;;;7.30;;
8596;SDS011;4336;49.310;8.646;2024-03-25T08:33:04;9.00;;;6.80;;
8596;SDS011;4336;49.310;8.646;2024-03-25T08:35:30;9.20;;;7.20;;
8596;SDS011;4336;49.310;8.646;2024-03-25T08:37:56;8.47;;;7.30;;
8596;SDS011;4336;49.310;8.646;2024-03-25T08:40:22;10.60;;;7.30;;
8596;SDS011;4336;49.310;8.646;2024-03-25T08:42:47;9.30;;;7.20;;
8596;SDS011;4336;49.310;8.646;2024-03-25T08:45:13;9.77;;;7.00;;
8596;SDS011;4336;49.310;8.646;2024-03-25T08:47:39;9.20;;;8.00;;
8596;SDS011;4336;49.310;8.646;2024-03-25T08:50:05;18.33;;;8.87;;
8596;SDS011;4336;49.310;8.646;2024-03-25T08:52:31;13.87;;;7.70;;
8596;SDS011;4336;49.310;8.646;2024-03-25T08:54:57;8.10;;;5.73;;
8596;SDS011;4336;49.310;8.646;2024-03-25T08:57:23;15.57;;;6.03;;
8596;SDS011;4336;49.310;8.646;2024-03-25T08:59:49;9.00;;;5.40;;
8596;SDS011;4336;49.310;8.646;2024-03-25T09:02:15;8.30;;;6.40;;
8596;SDS011;4336;49.310;8.646;2024-03-25T09:04:42;6.97;;;6.23;;
8596;SDS011;4336;49.310;8.646;2024-03-25T09:07:08;7.43;;;6.13;;
8596;SDS011;4336;49.310;8.646;2024-03-25T09:09:33;6.20;;;5.60;;
8596;SDS011;4336;49.310;8.646;2024-03-25T09:12:17;9.10;;;6.57;;
8596;SDS011;4336;49.310;8.646;2024-03-25T09:14:43;7.37;;;5.97;;
8596;SDS011;4336;49.310;8.646;2024-03-25T09:17:09;8.37;;;6.27;;
8596;SDS011;4336;49.310;8.646;2024-03-25T09:19:35;8.10;;;6.40;;
8596;SDS011;4336;49.310;8.646;2024-03-25T09:22:00;9.07;;;6.30;;
8596;SDS011;4336;49.310;8.646;2024-03-25T09:24:26;9.23;;;6.10;;
8596;SDS011;4336;49.310;8.646;2024-03-25T09:26:52;10.00;;;6.50;;
8596;SDS011;4336;49.310;8.646;2024-03-25T09:29:18;7.93;;;6.20;;
8596;SDS011;4336;49.310;8.646;2024-03-25T09:31:44;7.67;;;6.10;;
8596;SDS011;4336;49.310;8.646;2024-03-25T09:34:10;9.23;;;6.43;;
8596;SDS011;4336;49.310;8.646;2024-03-25T09:36:35;6.43;;;5.80;;
8596;SDS011;4336;49.310;8.646;2024-03-25T09:39:01;8.80;;;6.23;;
8596;SDS011;4336;49.310;8.646;2024-03-25T09:41:30;7.47;;;6.67;;
8596;SDS011;4336;49.310;8.646;2024-03-25T09:43:59;10.30;;;6.93;;
8596;SDS011;4336;49.310;8.646;2024-03-25T09:46:25;9.73;;;7.13;;
8596;SDS011;4336;49.310;8.646;2024-03-25T09:48:52;8.90;;;6.73;;
8596;SDS011;4336;49.310;8.646;2024-03-25T09:51:18;7.23;;;6.40;;
8596;SDS011;4336;49.310;8.646;2024-03-25T09:53:44;8.67;;;6.30;;
8596;SDS011;4336;49.310;8.646;2024-03-25T09:56:10;7.83;;;6.60;;
8596;SDS011;4336;49.310;8.646;2024-03-25T09:58:37;14.27;;;6.73;;
8596;SDS011;4336;49.310;8.646;2024-03-25T10:01:04;16.20;;;8.33;;
8596;SDS011;4336;49.310;8.646;2024-03-25T10:03:30;11.13;;;7.17;;
8596;SDS011;4336;49.310;8.646;2024-03-25T10:05:55;13.67;;;7.50;;
8596;SDS011;4336;49.310;8.646;2024-03-25T10:08:21;7.60;;;6.73;;
8596;SDS011;4336;49.310;8.646;2024-03-25T10:10:47;8.10;;;6.43;;
8596;SDS011;4336;49.310;8.646;2024-03-25T10:13:15;9.73;;;6.23;;
8596;SDS011;4336;49.310;8.646;2024-03-25T10:15:41;15.63;;;8.43;;
8596;SDS011;4336;49.310;8.646;2024-03-25T10:18:07;11.67;;;10.47;;
8596;SDS011;4336;49.310;8.646;2024-03-25T10:20:33;8.10;;;5.63;;
8596;SDS011;4336;49.310;8.646;2024-03-25T10:22:59;11.97;;;6.93;;
8596;SDS011;4336;49.310;8.646;2024-03-25T10:25:26;10.57;;;7.00;;
8596;SDS011;4336;49.310;8.646;2024-03-25T10:27:56;24.30;;;8.47;;
8596;SDS011;4336;49.310;8.646;2024-03-25T10:30:26;11.97;;;7.40;;
8596;SDS011;4336;49.310;8.646;2024-03-25T10:32:58;23.13;;;7.70;;
8596;SDS011;4336;49.310;8.646;2024-03-25T10:35:26;15.00;;;7.67;;
8596;SDS011;4336;49.310;8.646;2024-03-25T10:37:57;9.87;;;6.87;;
8596;SDS011;4336;49.310;8.646;2024-03-25T10:40:26;10.13;;;6.80;;
8596;SDS011;4336;49.310;8.646;2024-03-25T10:42:54;10.27;;;6.60;;
8596;SDS011;4336;49.310;8.646;2024-03-25T10:45:21;9.50;;;7.07;;
8596;SDS011;4336;49.310;8.646;2024-03-25T10:47:47;9.00;;;6.23;;
8596;SDS011;4336;49.310;8.646;2024-03-25T10:50:13;8.53;;;6.00;;
8596;SDS011;4336;49.310;8.646;2024-03-25T10:52:41;10.17;;;5.73;;
8596;SDS011;4336;49.310;8.646;2024-03-25T10:55:07;7.37;;;5.70;;
8596;SDS011;4336;49.310;8.646;2024-03-25T10:57:34;8.63;;;6.60;;
8596;SDS011;4336;49.310;8.646;2024-03-25T11:00:01;9.23;;;7.30;;
8596;SDS011;4336;49.310;8.646;2024-03-25T11:02:29;7.90;;;6.90;;
8596;SDS011;4336;49.310;8.646;2024-03-25T11:04:55;11.13;;;6.90;;
8596;SDS011;4336;49.310;8.646;2024-03-25T11:07:27;8.73;;;6.93;;
8596;SDS011;4336;49.310;8.646;2024-03-25T11:09:54;9.03;;;7.43;;
8596;SDS011;4336;49.310;8.646;2024-03-25T11:12:31;9.90;;;7.00;;
8596;SDS011;4336;49.310;8.646;2024-03-25T11:14:58;12.67;;;7.10;;
8596;SDS011;4336;49.310;8.646;2024-03-25T11:17:26;10.30;;;6.53;;
8596;SDS011;4336;49.310;8.646;2024-03-25T11:19:52;9.37;;;6.60;;
8596;SDS011;4336;49.310;8.646;2024-03-25T11:22:23;7.57;;;6.40;;
8596;SDS011;4336;49.310;8.646;2024-03-25T11:24:50;8.47;;;7.00;;
8596;SDS011;4336;49.310;8.646;2024-03-25T11:27:25;8.73;;;5.63;;
8596;SDS011;4336;49.310;8.646;2024-03-25T11:29:53;16.50;;;6.80;;
8596;SDS011;4336;49.310;8.646;2024-03-25T11:32:19;9.27;;;6.47;;
8596;SDS011;4336;49.310;8.646;2024-03-25T11:34:51;8.90;;;6.40;;
8596;SDS011;4336;49.310;8.646;2024-03-25T11:37:17;8.80;;;5.80;;
8596;SDS011;4336;49.310;8.646;2024-03-25T11:39:43;8.53;;;6.20;;
8596;SDS011;4336;49.310;8.646;2024-03-25T11:42:09;7.30;;;6.60;;
8596;SDS011;4336;49.310;8.646;2024-03-25T11:44:37;10.13;;;7.60;;
8596;SDS011;4336;49.310;8.646;2024-03-25T11:47:05;7.57;;;6.87;;
8596;SDS011;4336;49.310;8.646;2024-03-25T11:49:36;8.77;;;6.80;;
8596;SDS011;4336;49.310;8.646;2024-03-25T11:52:02;10.80;;;7.23;;
8596;SDS011;4336;49.310;8.646;2024-03-25T11:54:29;8.37;;;7.20;;
8596;SDS011;4336;49.310;8.646;2024-03-25T11:56:55;11.47;;;6.40;;
8596;SDS011;4336;49.310;8.646;2024-03-25T11:59:21;7.97;;;7.17;;
8596;SDS011;4336;49.310;8.646;2024-03-25T12:01:47;10.07;;;6.90;;
8596;SDS011;4336;49.310;8.646;2024-03-25T12:04:17;7.17;;;5.80;;
8596;SDS011;4336;49.310;8.646;2024-03-25T12:06:43;6.97;;;6.13;;
8596;SDS011;4336;49.310;8.646;2024-03-25T12:09:13;8.90;;;6.63;;
8596;SDS011;4336;49.310;8.646;2024-03-25T12:11:57;7.97;;;6.20;;
8596;SDS011;4336;49.310;8.646;2024-03-25T12:14:23;6.47;;;5.73;;
8596;SDS011;4336;49.310;8.646;2024-03-25T12:16:55;7.87;;;6.30;;
8596;SDS011;4336;49.310;8.646;2024-03-25T12:19:20;8.50;;;7.20;;
8596;SDS011;4336;49.310;8.646;2024-03-25T12:21:49;11.20;;;6.47;;
8596;SDS011;4336;49.310;8.646;2024-03-25T12:24:14;6.67;;;5.87;;
8596;SDS011;4336;49.310;8.646;2024-03-25T12:26:41;8.10;;;6.00;;
8596;SDS011;4336;49.310;8.646;2024-03-25T12:29:07;6.60;;;5.90;;
8596;SDS011;4336;49.310;8.646;2024-03-25T12:31:33;9.57;;;6.80;;
8596;SDS011;4336;49.310;8.646;2024-03-25T12:33:59;8.33;;;6.63;;
8596;SDS011;4336;49.310;8.646;2024-03-25T12:36:25;8.43;;;6.10;;
8596;SDS011;4336;49.310;8.646;2024-03-25T12:38:55;7.33;;;6.57;;
8596;SDS011;4336;49.310;8.646;2024-03-25T12:41:22;6.77;;;6.10;;
8596;SDS011;4336;49.310;8.646;2024-03-25T12:43:49;10.83;;;6.53;;
8596;SDS011;4336;49.310;8.646;2024-03-25T12:46:15;6.80;;;6.10;;
8596;SDS011;4336;49.310;8.646;2024-03-25T12:48:41;6.20;;;5.60;;
8596;SDS011;4336;49.310;8.646;2024-03-25T12:51:14;6.93;;;6.27;;
8596;SDS011;4336;49.310;8.646;2024-03-25T12:53:40;6.70;;;6.10;;
8596;SDS011;4336;49.310;8.646;2024-03-25T12:56:06;16.87;;;6.03;;
8596;SDS011;4336;49.310;8.646;2024-03-25T12:58:32;7.20;;;6.50;;
8596;SDS011;4336;49.310;8.646;2024-03-25T13:00:58;9.40;;;6.30;;
8596;SDS011;4336;49.310;8.646;2024-03-25T13:03:24;7.20;;;5.70;;
8596;SDS011;4336;49.310;8.646;2024-03-25T13:05:50;7.07;;;5.57;;
8596;SDS011;4336;49.310;8.646;2024-03-25T13:08:17;21.47;;;6.17;;
8596;SDS011;4336;49.310;8.646;2024-03-25T13:10:43;7.17;;;6.03;;
8596;SDS011;4336;49.310;8.646;2024-03-25T13:13:09;6.60;;;5.90;;
8596;SDS011;4336;49.310;8.646;2024-03-25T13:15:35;7.93;;;5.83;;
8596;SDS011;4336;49.310;8.646;2024-03-25T13:18:00;7.57;;;6.43;;
8596;SDS011;4336;49.310;8.646;2024-03-25T13:20:26;7.27;;;6.13;;
8596;SDS011;4336;49.310;8.646;2024-03-25T13:22:53;11.47;;;5.67;;
8596;SDS011;4336;49.310;8.646;2024-03-25T13:25:22;7.17;;;6.17;;
8596;SDS011;4336;49.310;8.646;2024-03-25T13:27:48;7.53;;;6.23;;
8596;SDS011;4336;49.310;8.646;2024-03-25T13:30:14;6.97;;;6.27;;
8596;SDS011;4336;49.310;8.646;2024-03-25T13:32:40;8.20;;;6.17;;
8596;SDS011;4336;49.310;8.646;2024-03-25T13:35:06;10.30;;;6.30;;
8596;SDS011;4336;49.310;8.646;2024-03-25T13:37:32;7.37;;;5.40;;
8596;SDS011;4336;49.310;8.646;2024-03-25T13:39:58;9.90;;;5.33;;
8596;SDS011;4336;49.310;8.646;2024-03-25T13:42:24;6.67;;;5.87;;
8596;SDS011;4336;49.310;8.646;2024-03-25T13:44:49;8.20;;;5.67;;
8596;SDS011;4336;49.310;8.646;2024-03-25T13:47:15;9.13;;;5.53;;
8596;SDS011;4336;49.310;8.646;2024-03-25T13:49:41;7.60;;;6.10;;
8596;SDS011;4336;49.310;8.646;2024-03-25T13:52:06;7.57;;;6.43;;
8596;SDS011;4336;49.310;8.646;2024-03-25T13:54:32;7.07;;;6.20;;
8596;SDS011;4336;49.310;8.646;2024-03-25T13:56:59;6.47;;;5.87;;
8596;SDS011;4336;49.310;8.646;2024-03-25T13:59:24;7.70;;;6.10;;
8596;SDS011;4336;49.310;8.646;2024-03-25T14:01:50;5.73;;;5.13;;
8596;SDS011;4336;49.310;8.646;2024-03-25T14:04:19;6.60;;;6.00;;
8596;SDS011;4336;49.310;8.646;2024-03-25T14:06:45;7.27;;;5.63;;
8596;SDS011;4336;49.310;8.646;2024-03-25T14:09:26;7.03;;;6.37;;
8596;SDS011;4336;49.310;8.646;2024-03-25T14:11:52;12.20;;;5.90;;
8596;SDS011;4336;49.310;8.646;2024-03-25T14:14:18;7.17;;;6.10;;
8596;SDS011;4336;49.310;8.646;2024-03-25T14:16:44;10.20;;;5.90;;
8596;SDS011;4336;49.310;8.646;2024-03-25T14:19:10;6.27;;;4.97;;
8596;SDS011;4336;49.310;8.646;2024-03-25T14:21:36;8.00;;;6.10;;
8596;SDS011;4336;49.310;8.646;2024-03-25T14:24:04;8.27;;;6.77;;
8596;SDS011;4336;49.310;8.646;2024-03-25T14:26:30;9.27;;;5.40;;
8596;SDS011;4336;49.310;8.646;2024-03-25T14:28:57;6.37;;;5.77;;
8596;SDS011;4336;49.310;8.646;2024-03-25T14:31:25;6.77;;;6.10;;
8596;SDS011;4336;49.310;8.646;2024-03-25T14:33:51;7.10;;;6.40;;
8596;SDS011;4336;49.310;8.646;2024-03-25T14:36:17;10.30;;;6.40;;
8596;SDS011;4336;49.310;8.646;2024-03-25T14:38:43;6.83;;;5.47;;
8596;SDS011;4336;49.310;8.646;2024-03-25T14:41:18;7.77;;;6.47;;
8596;SDS011;4336;49.310;8.646;2024-03-25T14:43:44;7.27;;;6.50;;
8596;SDS011;4336;49.310;8.646;2024-03-25T14:46:11;9.60;;;6.43;;
8596;SDS011;4336;49.310;8.646;2024-03-25T14:48:37;6.50;;;5.90;;
8596;SDS011;4336;49.310;8.646;2024-03-25T14:51:03;7.10;;;6.40;;
8596;SDS011;4336;49.310;8.646;2024-03-25T14:53:29;6.40;;;5.80;;
8596;SDS011;4336;49.310;8.646;2024-03-25T14:55:55;7.17;;;6.47;;
8596;SDS011;4336;49.310;8.646;2024-03-25T14:58:22;6.73;;;6.23;;
8596;SDS011;4336;49.310;8.646;2024-03-25T15:00:48;7.80;;;6.67;;
8596;SDS011;4336;49.310;8.646;2024-03-25T15:03:14;7.57;;;6.57;;